createdAt,value
2023-03-05T00:00:00.375Z,4.7
2023-03-05T00:05:00.259Z,4.6
2023-03-05T00:10:00.271Z,4.6
2023-03-05T00:15:00.262Z,4.6
2023-03-05T00:20:02.261Z,4.6
2023-03-05T00:25:00.302Z,4.6
2023-03-05T00:30:00.364Z,4.5
2023-03-05T00:35:00.307Z,4.5
2023-03-05T00:40:00.400Z,4.5
2023-03-05T00:45:00.259Z,4.4
2023-03-05T00:50:00.289Z,4.4
2023-03-05T00:55:00.313Z,4.4
2023-03-05T01:00:00.321Z,4.4
2023-03-05T01:05:00.388Z,4.4
2023-03-05T01:10:00.238Z,4.4
2023-03-05T01:15:00.286Z,4.3
2023-03-05T01:20:00.267Z,4.3
2023-03-05T01:25:00.257Z,4.2
2023-03-05T01:30:00.312Z,4.2
2023-03-05T01:35:00.240Z,4.2
2023-03-05T01:40:00.263Z,4.1
2023-03-05T01:45:00.221Z,4.1
2023-03-05T01:50:00.295Z,4.1
2023-03-05T01:55:00.256Z,4
2023-03-05T02:00:00.297Z,4
2023-03-05T02:05:00.307Z,4
2023-03-05T02:10:00.356Z,4
2023-03-05T02:15:00.223Z,4
2023-03-05T02:20:00.246Z,4
2023-03-05T02:25:00.565Z,3.9
2023-03-05T02:30:00.266Z,4
2023-03-05T02:35:00.205Z,3.9
2023-03-05T02:40:00.264Z,3.9
2023-03-05T02:45:00.246Z,3.9
2023-03-05T02:50:00.233Z,3.9
2023-03-05T02:55:00.274Z,3.9
2023-03-05T03:00:00.318Z,3.9
2023-03-05T03:05:00.218Z,3.8
2023-03-05T03:10:00.263Z,3.8
2023-03-05T03:15:00.227Z,3.8
2023-03-05T03:20:07.241Z,3.8
2023-03-05T03:25:00.515Z,3.8
2023-03-05T03:30:00.296Z,3.8
2023-03-05T03:35:00.252Z,3.8
2023-03-05T03:40:00.302Z,3.8
2023-03-05T03:45:00.248Z,3.8
2023-03-05T03:50:00.289Z,3.8
2023-03-05T03:55:00.229Z,3.8
2023-03-05T04:00:00.374Z,3.8
2023-03-05T04:05:00.240Z,3.8
2023-03-05T04:10:00.294Z,3.8
2023-03-05T04:15:00.226Z,3.7
2023-03-05T04:20:00.281Z,3.8
2023-03-05T04:25:00.251Z,3.7
2023-03-05T04:30:00.285Z,3.7
2023-03-05T04:35:00.209Z,3.7
2023-03-05T04:40:00.252Z,3.7
2023-03-05T04:45:00.257Z,3.6
2023-03-05T04:50:00.197Z,3.6
2023-03-05T04:55:00.223Z,3.6
2023-03-05T05:00:00.280Z,3.6
2023-03-05T05:05:00.235Z,3.6
2023-03-05T05:10:00.270Z,3.5
2023-03-05T05:15:00.281Z,3.5
2023-03-05T05:20:00.240Z,3.4
2023-03-05T05:25:00.249Z,3.4
2023-03-05T05:30:00.272Z,3.4
2023-03-05T05:35:00.285Z,3.3
2023-03-05T05:40:00.289Z,3.3
2023-03-05T05:45:00.246Z,3.3
2023-03-05T05:50:00.242Z,3.3
2023-03-05T05:55:00.221Z,3.3
2023-03-05T06:00:00.327Z,3.3
2023-03-05T06:05:00.261Z,3.3
2023-03-05T06:10:00.251Z,3.2
2023-03-05T06:15:00.280Z,3.2
2023-03-05T06:20:00.284Z,3.3
2023-03-05T06:25:00.244Z,3.2
2023-03-05T06:30:00.257Z,3.3
2023-03-05T06:35:00.261Z,3.3
2023-03-05T06:40:00.246Z,3.3
2023-03-05T06:45:00.284Z,3.3
2023-03-05T06:50:00.257Z,3.3
2023-03-05T06:55:00.233Z,3.3
2023-03-05T07:00:00.266Z,3.3
2023-03-05T07:05:00.231Z,3.3
2023-03-05T07:10:00.241Z,3.3
2023-03-05T07:15:00.232Z,3.3
2023-03-05T07:20:00.257Z,3.3
2023-03-05T07:25:00.206Z,3.3
2023-03-05T07:30:00.307Z,3.3
2023-03-05T07:35:00.394Z,3.4
2023-03-05T07:40:00.303Z,3.3
2023-03-05T07:45:00.260Z,3.4
2023-03-05T07:50:00.219Z,3.4
2023-03-05T07:55:00.232Z,3.4
2023-03-05T08:00:00.257Z,3.4
2023-03-05T08:05:00.239Z,3.5
2023-03-05T08:10:00.215Z,3.6
2023-03-05T08:15:00.231Z,3.6
2023-03-05T08:20:00.307Z,3.6
2023-03-05T08:25:00.248Z,3.6
2023-03-05T08:30:00.270Z,3.7
2023-03-05T08:35:00.267Z,3.7
2023-03-05T08:40:00.285Z,3.8
2023-03-05T08:45:00.245Z,3.8
2023-03-05T08:50:00.276Z,3.8
2023-03-05T08:55:00.230Z,3.8
2023-03-05T09:00:00.310Z,3.8
2023-03-05T09:05:00.265Z,3.8
2023-03-05T09:10:00.264Z,3.8
2023-03-05T09:15:00.285Z,3.9
2023-03-05T09:20:00.239Z,4
2023-03-05T09:25:00.224Z,4
2023-03-05T09:30:00.299Z,4.1
2023-03-05T09:35:00.295Z,4.2
2023-03-05T09:40:00.194Z,4.2
2023-03-05T09:45:00.232Z,4.2
2023-03-05T09:50:00.243Z,4.3
2023-03-05T09:55:00.306Z,4.3
2023-03-05T10:00:00.312Z,4.4
2023-03-05T10:05:00.232Z,4.4
2023-03-05T10:10:00.284Z,4.4
2023-03-05T10:15:00.643Z,4.4
2023-03-05T10:20:00.192Z,4.3
2023-03-05T10:25:00.285Z,4.4
2023-03-05T10:30:00.294Z,4.4
2023-03-05T10:35:00.260Z,4.4
2023-03-05T10:40:00.260Z,4.4
2023-03-05T10:45:00.251Z,4.5
2023-03-05T10:50:00.290Z,4.6
2023-03-05T10:55:00.275Z,4.6
2023-03-05T11:00:00.320Z,4.6
2023-03-05T11:05:00.236Z,4.7
2023-03-05T11:10:00.264Z,4.8
2023-03-05T11:15:00.218Z,4.8
2023-03-05T11:20:00.269Z,4.9
2023-03-05T11:25:00.258Z,4.9
2023-03-05T11:30:00.329Z,4.9
2023-03-05T11:35:00.265Z,5
2023-03-05T11:40:00.248Z,5
2023-03-05T11:45:00.244Z,5.1
2023-03-05T11:50:00.280Z,5
2023-03-05T11:55:00.202Z,5
2023-03-05T12:00:00.284Z,5.1
2023-03-05T12:05:00.177Z,5.1
2023-03-05T12:10:00.270Z,5.2
2023-03-05T12:15:00.253Z,5.3
2023-03-05T12:20:00.284Z,5.4
2023-03-05T12:25:00.209Z,5.5
2023-03-05T12:30:00.271Z,5.6
2023-03-05T12:35:00.278Z,5.7
2023-03-05T12:40:00.245Z,5.7
2023-03-05T12:45:00.225Z,5.8
2023-03-05T12:50:00.236Z,5.8
2023-03-05T12:55:00.265Z,5.8
2023-03-05T13:00:00.305Z,5.8
2023-03-05T13:05:00.190Z,5.9
2023-03-05T13:10:00.337Z,5.9
2023-03-05T13:15:00.260Z,5.9
2023-03-05T13:20:00.283Z,5.9
2023-03-05T13:25:00.265Z,6
2023-03-05T13:30:00.301Z,6
2023-03-05T13:35:00.313Z,6
2023-03-05T13:40:00.243Z,6
2023-03-05T13:45:00.261Z,6
2023-03-05T13:50:00.266Z,6
2023-03-05T13:55:00.268Z,6.1
2023-03-05T14:00:00.341Z,6.1
2023-03-05T14:05:00.322Z,6.2
2023-03-05T14:10:00.273Z,6.3
2023-03-05T14:15:00.292Z,6.4
2023-03-05T14:20:00.300Z,6.4
2023-03-05T14:25:00.245Z,6.4
2023-03-05T14:30:00.330Z,6.4
2023-03-05T14:35:00.178Z,6.4
2023-03-05T14:40:00.195Z,6.4
2023-03-05T14:45:00.238Z,6.4
2023-03-05T14:50:00.344Z,6.4
2023-03-05T14:55:00.228Z,6.4
2023-03-05T15:00:00.284Z,6.4
2023-03-05T15:05:00.275Z,6.4
2023-03-05T15:10:00.223Z,6.4
2023-03-05T15:15:00.235Z,6.4
2023-03-05T15:20:00.185Z,6.3
2023-03-05T15:25:00.248Z,6.3
2023-03-05T15:30:00.352Z,6.3
2023-03-05T15:35:00.257Z,6.2
2023-03-05T15:40:00.263Z,6.2
2023-03-05T15:45:00.244Z,6.2
2023-03-05T15:50:00.246Z,6.2
2023-03-05T15:55:00.199Z,6.2
2023-03-05T16:00:00.253Z,6.2
2023-03-05T16:05:00.210Z,6.2
2023-03-05T16:10:00.290Z,6.2
2023-03-05T16:15:00.305Z,6.1
2023-03-05T16:20:00.337Z,6.1
2023-03-05T16:25:00.230Z,6.1
2023-03-05T16:30:00.281Z,6.1
2023-03-05T16:35:00.204Z,6.1
2023-03-05T16:40:00.241Z,6.1
2023-03-05T16:45:00.310Z,6.1
2023-03-05T16:50:00.313Z,6
2023-03-05T16:55:00.252Z,6
2023-03-05T17:00:00.277Z,6
2023-03-05T17:05:00.297Z,6
2023-03-05T17:10:00.316Z,5.9
2023-03-05T17:15:00.274Z,5.9
2023-03-05T17:20:00.233Z,5.9
2023-03-05T17:25:00.259Z,5.9
2023-03-05T17:30:00.288Z,5.8
2023-03-05T17:35:00.254Z,5.8
2023-03-05T17:40:00.303Z,5.7
2023-03-05T17:45:00.311Z,5.7
2023-03-05T17:50:00.454Z,5.7
2023-03-05T17:55:00.178Z,5.6
2023-03-05T18:00:00.436Z,5.6
2023-03-05T18:05:00.758Z,5.6
2023-03-05T18:10:00.236Z,5.5
2023-03-05T18:15:00.239Z,5.5
2023-03-05T18:20:02.853Z,5.5
2023-03-05T18:25:00.253Z,5.5
2023-03-05T18:30:00.322Z,5.4
2023-03-05T18:35:00.216Z,5.4
2023-03-05T18:40:00.278Z,5.3
2023-03-05T18:45:00.289Z,5.3
2023-03-05T18:50:00.268Z,5.3
2023-03-05T18:55:00.283Z,5.3
2023-03-05T19:00:05.211Z,5.3
2023-03-05T19:05:00.237Z,5.3
2023-03-05T19:10:05.251Z,5.2
2023-03-05T19:15:00.300Z,5.2
2023-03-05T19:20:00.247Z,5.2
2023-03-05T19:25:00.256Z,5.2
2023-03-05T19:30:00.280Z,5.1
2023-03-05T19:35:00.238Z,5.1
2023-03-05T19:40:00.286Z,5.1
2023-03-05T19:45:00.354Z,5.1
2023-03-05T19:50:00.181Z,5.1
2023-03-05T19:55:00.240Z,5
2023-03-05T20:00:00.268Z,5
2023-03-05T20:05:00.209Z,5
2023-03-05T20:10:00.294Z,4.9
2023-03-05T20:15:00.216Z,4.9
2023-03-05T20:20:00.214Z,4.9
2023-03-05T20:25:00.256Z,4.9
2023-03-05T20:30:00.263Z,4.9
2023-03-05T20:35:00.192Z,4.9
2023-03-05T20:40:00.269Z,4.8
2023-03-05T20:45:00.279Z,4.7
2023-03-05T20:50:00.249Z,4.7
2023-03-05T20:55:00.239Z,4.7
2023-03-05T21:00:00.365Z,4.6
2023-03-05T21:05:00.282Z,4.6
2023-03-05T21:10:00.224Z,4.6
2023-03-05T21:15:00.288Z,4.5
2023-03-05T21:20:00.291Z,4.5
2023-03-05T21:25:00.267Z,4.5
2023-03-05T21:30:00.261Z,4.5
2023-03-05T21:35:00.519Z,4.5
2023-03-05T21:40:00.236Z,4.4
2023-03-05T21:45:00.287Z,4.4
2023-03-05T21:50:00.297Z,4.4
2023-03-05T21:55:00.211Z,4.4
2023-03-05T22:00:00.258Z,4.4
2023-03-05T22:05:00.268Z,4.4
2023-03-05T22:10:00.190Z,4.4
2023-03-05T22:15:00.262Z,4.4
2023-03-05T22:20:00.264Z,4.4
2023-03-05T22:25:00.272Z,4.3
2023-03-05T22:30:00.212Z,4.3
2023-03-05T22:35:00.242Z,4.3
2023-03-05T22:40:00.190Z,4.3
2023-03-05T22:45:00.225Z,4.3
2023-03-05T22:50:00.230Z,4.2
2023-03-05T22:55:00.178Z,4.3
2023-03-05T23:00:00.285Z,4.3
2023-03-05T23:05:00.259Z,4.2
2023-03-05T23:10:00.198Z,4.2
2023-03-05T23:15:00.248Z,4.2
2023-03-05T23:20:00.201Z,4.2
2023-03-05T23:25:00.227Z,4.2
2023-03-05T23:30:00.562Z,4.2
2023-03-05T23:35:00.218Z,4.2
2023-03-05T23:40:00.279Z,4.2
2023-03-05T23:45:00.369Z,4.2
2023-03-05T23:50:00.236Z,4.2
2023-03-05T23:55:00.276Z,4.2
